Notice: Undefined index: language in /home/u908952976/domains/airgaviota-va.com/public_html/vam/index.php on line 25
AirGaviota-VA

... VIRTUAL FLIGHT...OUR PASSION



 FLIGHT DETAILS
Pilot: GVT462 Peter Voksan Aircraft: REDEYES - ANTONOV AN-2 (32V_64B) AN-2-GAVIOTAAIRVAAEROTAXI Distance: 76NM
Departure MUCA Arrival MUSC Duration 00:45
Validation Validated Type Charter Tail Number GV-AET
ZFW 4085 Block Fuel/Initial FOB 80/0 Flight Fuel 66
Passengers 20 Cargo 0 Alternate MUCF
Departure Time 0715 Cruise Speed 130 Flight Level 2500
Flight Type VFR Aircraft Type AN2 Weight Unit Kg
Date 23-09-2020 Pilot Comments Network IVAO
Crashed No Validator Comments Flight Rating -30

 ROUTE
ROUTE CABALGUAN
REMARKS AIRGAVIOTA AEROTAXI VFR TOUR LEG14.
 FLIGHT FAILURES
Crashed OK Beacon off & Engine Running Fail KIAS Above 250 below 10000 FT OK
Lights OFF below 10000 FT OK Lights ON above 10000 FT OK Stall OK
Overspeed OK Flight paused OK Refueling OK
Slew detected OK Taxi & Taxi lights off OK Take off & lights off OK
Landing & lights off OK Landed in not planned airport OK Taxi Speed Fail
Wrong altimeter in Take off OK Wrong altimeter in Landing OK
 LANDING ANALYSIS
Landing wind 99º/13 kt Landing heading 78
Landing VS: -56.9 ft/min Landing IAS: 49.46 kt
Landing Force G 1 G Landing Bank -1.3
Landing Pitch 4.4 Landing Flaps 0
Navigation Lights ON Landing Lights ON
Beacon Lights OFF Strobe Lights OFF
 FLIGHT MAP
 ALTITUDE CHART
 FLIGHT FINANCIAL REPORT
 MAIN EVENTS
DATE EVENTIASALTITUDE
2020-09-23 09:07:52 SIM ACARS version 1.4.10344
2020-09-23 09:07:52 BOARDING0344
2020-09-23 09:11:10 STARTING ENGINE 1 0344
2020-09-23 09:11:10 BEACON LIGHT OFF & ENGINE ON0344
2020-09-23 09:17:01 FLAPS EXTENSION 3 % 0344
2020-09-23 09:17:02 FLAPS EXTENSION 4 % 0344
2020-09-23 09:17:02 FLAPS EXTENSION 6 % 0344
2020-09-23 09:17:02 FLAPS EXTENSION 8 % 0344
2020-09-23 09:17:02 FLAPS EXTENSION 10 % 0344
2020-09-23 09:17:02 FLAPS EXTENSION 13 % 0344
2020-09-23 09:17:03 FLAPS EXTENSION 18 % 0344
2020-09-23 09:17:03 FLAPS EXTENSION 20 % 0344
2020-09-23 09:17:03 FLAPS EXTENSION 24 % 0344
2020-09-23 09:17:04 FLAPS EXTENSION 29 % 0344
2020-09-23 09:17:04 FLAPS EXTENSION 31 % 0344
2020-09-23 09:17:04 FLAPS EXTENSION 32 % 0344
2020-09-23 09:17:04 FLAPS EXTENSION 33 % 0344
2020-09-23 09:17:27 FLAPS EXTENSION 35 % 0344
2020-09-23 09:17:27 FLAPS EXTENSION 37 % 0344
2020-09-23 09:17:27 FLAPS EXTENSION 39 % 0344
2020-09-23 09:17:27 FLAPS EXTENSION 40 % 0344
2020-09-23 09:18:46 TAXI TO THE RWY 14344
2020-09-23 09:21:10 TAKE OFF42344
2020-09-23 09:21:10 LANDING44345
2020-09-23 09:21:18 TAKE OFF44395
2020-09-23 09:22:36 FLAPS EXTENSION 38 % 49970
2020-09-23 09:22:36 FLAPS EXTENSION 37 % 49971
2020-09-23 09:22:36 FLAPS EXTENSION 35 % 49971
2020-09-23 09:22:37 FLAPS EXTENSION 34 % 49971
2020-09-23 09:22:37 FLAPS EXTENSION 31 % 49972
2020-09-23 09:22:37 FLAPS EXTENSION 28 % 49972
2020-09-23 09:22:37 FLAPS EXTENSION 28 % 49972
2020-09-23 09:23:23 FLAPS EXTENSION 26 % 581212
2020-09-23 09:23:24 FLAPS EXTENSION 21 % 581214
2020-09-23 09:23:24 FLAPS EXTENSION 19 % 581215
2020-09-23 09:23:24 FLAPS EXTENSION 16 % 581216
2020-09-23 09:23:24 FLAPS EXTENSION 13 % 581217
2020-09-23 09:23:25 FLAPS EXTENSION 11 % 581218
2020-09-23 09:23:25 FLAPS EXTENSION 10 % 581219
2020-09-23 09:23:25 FLAPS EXTENSION 8 % 581219
2020-09-23 09:23:25 FLAPS EXTENSION 6 % 591220
2020-09-23 09:23:25 FLAPS EXTENSION 2 % 591221
2020-09-23 09:23:25 FLAPS EXTENSION 1 % 591221
2020-09-23 09:23:26 FLAPS EXTENSION 0 % 591222
2020-09-23 09:23:30 CRUISE631232
2020-09-23 09:24:00 CLIMBING721399
2020-09-23 09:24:40 CRUISE771466
2020-09-23 09:25:40 CLIMBING881618
2020-09-23 09:26:20 CRUISE911700
2020-09-23 09:29:10 DESCEND1081563
2020-09-23 09:31:10 CRUISE1061185
2020-09-23 09:32:30 CLIMBING961123
2020-09-23 09:33:40 CRUISE971163
2020-09-23 09:42:30 CLIMBING841468
2020-09-23 09:43:30 CRUISE851635
2020-09-23 09:44:40 CLIMBING871815
2020-09-23 09:45:10 CRUISE921874
2020-09-23 09:48:00 DESCEND1111853
2020-09-23 09:49:30 CRUISE1051798
2020-09-23 09:50:50 DESCEND1091677
2020-09-23 09:51:20 CRUISE1091603
2020-09-23 09:54:20 DESCEND1101455
2020-09-23 09:54:50 CRUISE1081424
2020-09-23 09:56:40 DESCEND1201247
2020-09-23 09:57:30 CRUISE981430
2020-09-23 09:58:30 DESCEND1151218
2020-09-23 10:00:20 CLIMBING811342
2020-09-23 10:01:40 CRUISE961225
2020-09-23 10:04:24 FLAPS EXTENSION 1 % 671108
2020-09-23 10:04:24 FLAPS EXTENSION 5 % 671107
2020-09-23 10:04:24 FLAPS EXTENSION 9 % 671106
2020-09-23 10:04:25 FLAPS EXTENSION 11 % 671106
2020-09-23 10:04:25 FLAPS EXTENSION 12 % 671105
2020-09-23 10:04:43 FLAPS EXTENSION 14 % 621064
2020-09-23 10:04:43 FLAPS EXTENSION 15 % 621064
2020-09-23 10:04:43 FLAPS EXTENSION 17 % 621063
2020-09-23 10:04:43 FLAPS EXTENSION 19 % 621063
2020-09-23 10:04:43 FLAPS EXTENSION 21 % 621063
2020-09-23 10:04:43 FLAPS EXTENSION 22 % 621063
2020-09-23 10:04:43 FLAPS EXTENSION 24 % 621062
2020-09-23 10:04:44 FLAPS EXTENSION 26 % 621062
2020-09-23 10:04:44 FLAPS EXTENSION 28 % 611062
2020-09-23 10:04:44 FLAPS EXTENSION 30 % 611062
2020-09-23 10:04:44 FLAPS EXTENSION 33 % 611062
2020-09-23 10:04:44 FLAPS EXTENSION 35 % 611062
2020-09-23 10:04:44 FLAPS EXTENSION 36 % 611062
2020-09-23 10:04:45 FLAPS EXTENSION 38 % 611062
2020-09-23 10:04:45 FLAPS EXTENSION 39 % 611062
2020-09-23 10:04:45 FLAPS EXTENSION 42 % 611062
2020-09-23 10:04:45 FLAPS EXTENSION 43 % 611063
2020-09-23 10:04:45 FLAPS EXTENSION 45 % 611063
2020-09-23 10:04:45 FLAPS EXTENSION 46 % 601063
2020-09-23 10:04:45 FLAPS EXTENSION 48 % 601063
2020-09-23 10:04:46 FLAPS EXTENSION 50 % 601064
2020-09-23 10:04:46 FLAPS EXTENSION 52 % 601064
2020-09-23 10:04:46 FLAPS EXTENSION 54 % 601064
2020-09-23 10:06:10 FLAPS EXTENSION 55 % 591098
2020-09-23 10:06:10 FLAPS EXTENSION 57 % 591097
2020-09-23 10:06:10 FLAPS EXTENSION 59 % 591096
2020-09-23 10:06:10 FLAPS EXTENSION 62 % 591095
2020-09-23 10:06:10 FLAPS EXTENSION 64 % 591094
2020-09-23 10:06:11 FLAPS EXTENSION 65 % 591093
2020-09-23 10:06:11 FLAPS EXTENSION 67 % 591092
2020-09-23 10:06:11 FLAPS EXTENSION 69 % 591091
2020-09-23 10:06:11 FLAPS EXTENSION 71 % 591090
2020-09-23 10:06:11 FLAPS EXTENSION 74 % 591089
2020-09-23 10:06:11 FLAPS EXTENSION 76 % 591087
2020-09-23 10:06:12 FLAPS EXTENSION 78 % 591087
2020-09-23 10:06:12 FLAPS EXTENSION 80 % 591085
2020-09-23 10:06:12 FLAPS EXTENSION 82 % 591084
2020-09-23 10:06:12 FLAPS EXTENSION 83 % 591084
2020-09-23 10:06:12 FLAPS EXTENSION 85 % 591083
2020-09-23 10:06:12 FLAPS EXTENSION 87 % 591082
2020-09-23 10:06:13 FLAPS EXTENSION 89 % 591081
2020-09-23 10:06:13 FLAPS EXTENSION 91 % 581080
2020-09-23 10:06:13 FLAPS EXTENSION 93 % 581079
2020-09-23 10:06:13 FLAPS EXTENSION 95 % 581078
2020-09-23 10:06:13 FLAPS EXTENSION 97 % 581077
2020-09-23 10:06:13 FLAPS EXTENSION 99 % 581076
2020-09-23 10:06:13 FLAPS EXTENSION 100 % 581075
2020-09-23 10:06:20 DESCEND551033
2020-09-23 10:07:33 LANDING49348
2020-09-23 10:07:50 FLAPS EXTENSION 99 % 29347
2020-09-23 10:07:50 FLAPS EXTENSION 97 % 29347
2020-09-23 10:07:50 FLAPS EXTENSION 95 % 28347
2020-09-23 10:07:50 FLAPS EXTENSION 93 % 28347
2020-09-23 10:07:50 FLAPS EXTENSION 91 % 28347
2020-09-23 10:07:51 FLAPS EXTENSION 90 % 28347
2020-09-23 10:07:51 FLAPS EXTENSION 88 % 27347
2020-09-23 10:07:51 FLAPS EXTENSION 86 % 27347
2020-09-23 10:07:51 FLAPS EXTENSION 85 % 27347
2020-09-23 10:07:51 FLAPS EXTENSION 83 % 27347
2020-09-23 10:07:51 FLAPS EXTENSION 80 % 27347
2020-09-23 10:07:51 FLAPS EXTENSION 79 % 27347
2020-09-23 10:07:52 FLAPS EXTENSION 76 % 26347
2020-09-23 10:07:52 FLAPS EXTENSION 74 % 26347
2020-09-23 10:07:52 FLAPS EXTENSION 69 % 26347
2020-09-23 10:07:52 FLAPS EXTENSION 67 % 26347
2020-09-23 10:07:53 FLAPS EXTENSION 65 % 25347
2020-09-23 10:07:53 FLAPS EXTENSION 63 % 25347
2020-09-23 10:07:53 FLAPS EXTENSION 61 % 25347
2020-09-23 10:07:53 FLAPS EXTENSION 59 % 25347
2020-09-23 10:07:53 FLAPS EXTENSION 58 % 24347
2020-09-23 10:07:53 FLAPS EXTENSION 56 % 24347
2020-09-23 10:07:53 FLAPS EXTENSION 54 % 24347
2020-09-23 10:07:54 FLAPS EXTENSION 53 % 24347
2020-09-23 10:07:55 FLAPS EXTENSION 41 % 22347
2020-09-23 10:07:55 FLAPS EXTENSION 40 % 22347
2020-09-23 10:07:55 FLAPS EXTENSION 38 % 22347
2020-09-23 10:07:55 FLAPS EXTENSION 36 % 22347
2020-09-23 10:07:55 FLAPS EXTENSION 34 % 22347
2020-09-23 10:07:55 FLAPS EXTENSION 32 % 22347
2020-09-23 10:07:55 FLAPS EXTENSION 30 % 21347
2020-09-23 10:07:56 FLAPS EXTENSION 29 % 21347
2020-09-23 10:07:56 FLAPS EXTENSION 27 % 21347
2020-09-23 10:07:56 FLAPS EXTENSION 25 % 21347
2020-09-23 10:07:56 FLAPS EXTENSION 23 % 20347
2020-09-23 10:07:56 FLAPS EXTENSION 21 % 20347
2020-09-23 10:07:56 TAXI TO THE GATE20347
2020-09-23 10:07:57 TAXI SPEED ABOVE 25 KTS20347
2020-09-23 10:07:57 FLAPS EXTENSION 19 % 20347
2020-09-23 10:07:57 FLAPS EXTENSION 14 % 18347
2020-09-23 10:07:57 FLAPS EXTENSION 13 % 17347
2020-09-23 10:07:57 FLAPS EXTENSION 11 % 17347
2020-09-23 10:07:57 FLAPS EXTENSION 8 % 15347
2020-09-23 10:07:58 FLAPS EXTENSION 6 % 14347
2020-09-23 10:07:58 FLAPS EXTENSION 4 % 13347
2020-09-23 10:07:58 FLAPS EXTENSION 2 % 12347
2020-09-23 10:07:58 FLAPS EXTENSION 1 % 12347
2020-09-23 10:07:58 FLAPS EXTENSION 0 % 11347
2020-09-23 10:10:17 STOPPING ENGINE 1 6347
 ACARS DATA
DATE IASGSALTITUDEFUEL CONSUMED OATFLIGHT STATUS
2020-09-23 09:08:520034308BOARDING
2020-09-23 09:09:520034308BOARDING
2020-09-23 09:10:520034308BOARDING
2020-09-23 09:11:520034318BOARDING
2020-09-23 09:12:520034328BOARDING
2020-09-23 09:13:520034328BOARDING
2020-09-23 09:14:520034338BOARDING
2020-09-23 09:15:520034348BOARDING
2020-09-23 09:16:520034358BOARDING
2020-09-23 09:17:524234368BOARDING
2020-09-23 09:18:5211734378TAXI TO THE RWY
2020-09-23 09:19:524034388TAXI TO THE RWY
2020-09-23 09:20:523434498TAXI TO THE RWY
2020-09-23 09:21:524741620127CLIMBING
2020-09-23 09:22:5249421008147CLIMBING
2020-09-23 09:23:5270621342166CRUISE
2020-09-23 09:24:5278701506186CRUISE
2020-09-23 09:25:5287801694195CLIMBING
2020-09-23 09:26:5297901734205CRUISE
2020-09-23 09:27:5298911764225CRUISE
2020-09-23 09:28:52104961630236CRUISE
2020-09-23 09:29:52107991573256DESCEND
2020-09-23 09:30:5210311312732621DESCEND
2020-09-23 09:31:529810811142821CRUISE
2020-09-23 09:32:529510511472921CLIMBING
2020-09-23 09:33:529610511693021CRUISE
2020-09-23 09:34:529510511573221CRUISE
2020-09-23 09:35:529710711003321CRUISE
2020-09-23 09:36:529810810603521CRUISE
2020-09-23 09:37:529510410723621CRUISE
2020-09-23 09:38:5210011010173721CRUISE
2020-09-23 09:39:529410410433921CRUISE
2020-09-23 09:40:52889711934021CRUISE
2020-09-23 09:41:52869513794220CRUISE
2020-09-23 09:42:52819115454320CLIMBING
2020-09-23 09:43:52889816504420CRUISE
2020-09-23 09:44:529010018254619CLIMBING
2020-09-23 09:45:529310419414719CRUISE
2020-09-23 09:46:529410520464919CRUISE
2020-09-23 09:47:5210811919155019CRUISE
2020-09-23 09:48:5210511717825220DESCEND
2020-09-23 09:49:5210311418065319CRUISE
2020-09-23 09:50:5210912016665420DESCEND
2020-09-23 09:51:529911016545620CRUISE
2020-09-23 09:52:5210811916105720CRUISE
2020-09-23 09:53:5210711815175920CRUISE
2020-09-23 09:54:5210811814206020CRUISE
2020-09-23 09:55:5210611414186220CRUISE
2020-09-23 09:56:5211112212766321DESCEND
2020-09-23 09:57:529810814386520CRUISE
2020-09-23 09:58:5211412411306621DESCEND
2020-09-23 09:59:529610611106821DESCEND
2020-09-23 10:00:5210111112396921CLIMBING
2020-09-23 10:01:529210112577121CRUISE
2020-09-23 10:02:529210212597221CRUISE
2020-09-23 10:03:52788011987321CRUISE
2020-09-23 10:04:52555610697421CRUISE
2020-09-23 10:05:52606511207621CRUISE
2020-09-23 10:06:5261757207721DESCEND
2020-09-23 10:07:5226333477822LANDED
2020-09-23 10:08:5225203477922TAXI TO THE GATE
2020-09-23 10:09:52503468022TAXI TO THE GATE